createdAt,value
2023-02-22T00:04:00.760Z,101205.86
2023-02-22T00:10:04.429Z,101202.85
2023-02-22T00:16:08.190Z,101204.71
2023-02-22T00:22:11.735Z,101199.79
2023-02-22T00:28:15.309Z,101195.84
2023-02-22T00:34:18.841Z,101195.02
2023-02-22T00:40:22.447Z,101189.35
2023-02-22T00:46:26.416Z,101190.48
2023-02-22T00:52:29.790Z,101185.81
2023-02-22T00:58:33.354Z,101191.04
2023-02-22T01:04:36.950Z,101192.75
2023-02-22T01:10:40.421Z,101194.30
2023-02-22T01:16:43.919Z,101199.36
2023-02-22T01:22:47.501Z,101197.64
2023-02-22T01:28:51.008Z,101196.00
2023-02-22T01:34:54.504Z,101187.20
2023-02-22T01:40:58.085Z,101180.14
2023-02-22T01:47:01.552Z,101175.75
2023-02-22T01:53:05.095Z,101173.81
2023-02-22T01:59:08.601Z,101174.50
2023-02-22T02:05:12.239Z,101169.30
2023-02-22T02:11:16.060Z,101170.13
2023-02-22T02:17:19.757Z,101171.96
2023-02-22T02:23:35.179Z,101171.62
2023-02-22T02:29:47.814Z,101170.46
2023-02-22T02:35:31.007Z,101161.48
2023-02-22T02:41:46.822Z,101163.08
2023-02-22T02:47:53.129Z,101163.81
2023-02-22T02:53:56.495Z,101156.98
2023-02-22T03:00:05.774Z,101155.77
2023-02-22T03:06:27.375Z,101157.59
2023-02-22T03:12:33.621Z,101153.38
2023-02-22T03:19:01.221Z,101151.38
2023-02-22T03:25:10.729Z,101148.41
2023-02-22T03:31:23.410Z,101145.59
2023-02-22T03:37:27.000Z,101150.73
2023-02-22T03:43:30.475Z,101153.19
2023-02-22T03:49:32.382Z,101152.02
2023-02-22T03:55:35.940Z,101159.05
2023-02-22T04:01:39.425Z,101161.73
2023-02-22T04:07:43.032Z,101162.65
2023-02-22T04:13:46.413Z,101160.67
2023-02-22T04:19:49.960Z,101166.55
2023-02-22T04:25:53.435Z,101162.61
2023-02-22T04:31:56.949Z,101158.52
2023-02-22T04:38:00.415Z,101160.91
2023-02-22T04:44:04.115Z,101159.02
2023-02-22T04:49:50.593Z,101151.48
2023-02-22T04:55:54.095Z,101153.28
2023-02-22T05:01:50.963Z,101143.23
2023-02-22T05:07:54.763Z,101138.69
2023-02-22T05:13:56.770Z,101144.41
2023-02-22T05:20:00.328Z,101142.36
2023-02-22T05:26:04.170Z,101134.64
2023-02-22T05:32:07.713Z,101136.21
2023-02-22T05:38:03.759Z,101138.98
2023-02-22T05:44:07.148Z,101144.30
2023-02-22T05:49:59.041Z,101143.88
2023-02-22T05:56:02.618Z,101150.08
2023-02-22T06:02:06.152Z,101153.94
2023-02-22T06:08:09.626Z,101147.34
2023-02-22T06:14:13.331Z,101155.86
2023-02-22T06:20:16.795Z,101159.59
2023-02-22T06:26:20.366Z,101165.40
2023-02-22T06:32:22.740Z,101168.19
2023-02-22T06:38:26.283Z,101171.28
2023-02-22T06:44:29.795Z,101180.72
2023-02-22T06:50:28.801Z,101185.73
2023-02-22T06:56:32.407Z,101188.20
2023-02-22T07:02:36.135Z,101183.80
2023-02-22T07:08:32.579Z,101193.34
2023-02-22T07:14:35.947Z,101198.40
2023-02-22T07:20:32.445Z,101200.96
2023-02-22T07:26:35.871Z,101198.34
2023-02-22T07:32:39.425Z,101200.66
2023-02-22T07:38:42.873Z,101200.45
2023-02-22T07:44:46.529Z,101197.82
2023-02-22T07:50:52.807Z,101201.57
2023-02-22T07:56:56.351Z,101198.72
2023-02-22T08:02:59.742Z,101199.77
2023-02-22T08:09:03.367Z,101199.40
2023-02-22T08:14:59.274Z,101198.89
2023-02-22T08:21:02.949Z,101201.15
2023-02-22T08:27:06.705Z,101196.21
2023-02-22T08:33:10.331Z,101197.16
2023-02-22T08:39:19.987Z,101201.26
2023-02-22T08:45:23.391Z,101201.79
2023-02-22T08:51:27.847Z,101199.18
2023-02-22T08:57:24.552Z,101200.96
2023-02-22T09:03:28.061Z,101196.16
2023-02-22T09:09:31.930Z,101195.76
2023-02-22T09:15:34.979Z,101195.67
2023-02-22T09:21:38.404Z,101199.46
2023-02-22T09:27:41.811Z,101199.25
2023-02-22T09:33:47.372Z,101201.50
2023-02-22T09:39:50.982Z,101202.21
2023-02-22T09:46:00.266Z,101199.86
2023-02-22T09:52:08.186Z,101192.16
2023-02-22T09:58:11.670Z,101186.34
2023-02-22T10:04:20.970Z,101186.29
2023-02-22T10:10:24.598Z,101181.17
2023-02-22T10:16:28.188Z,101180.77
2023-02-22T10:22:34.590Z,101175.60
2023-02-22T10:28:41.272Z,101173.48
2023-02-22T10:34:50.929Z,101173.37
2023-02-22T10:41:00.315Z,101173.69
2023-02-22T10:47:03.835Z,101170.13
2023-02-22T10:53:07.226Z,101165.65
2023-02-22T10:59:03.372Z,101161.90
2023-02-22T11:05:12.777Z,101163.73
2023-02-22T11:11:16.951Z,101162.25
2023-02-22T11:17:34.376Z,101157.85
2023-02-22T11:23:37.791Z,101157.33
2023-02-22T11:29:44.637Z,101154.37
2023-02-22T11:35:22.161Z,101148.31
2023-02-22T11:41:08.588Z,101140.83
2023-02-22T11:47:11.623Z,101133.48
2023-02-22T11:53:03.748Z,101124.86
2023-02-22T11:58:59.127Z,101123.19
2023-02-22T12:05:20.949Z,101112.75
2023-02-22T12:11:18.460Z,101111.90
2023-02-22T12:17:05.897Z,101111.45
2023-02-22T12:23:04.193Z,101108.95
2023-02-22T12:29:15.484Z,101102.96
2023-02-22T12:35:24.918Z,101103.33
2023-02-22T12:41:17.602Z,101101.75
2023-02-22T12:47:24.196Z,101099.95
2023-02-22T12:53:36.666Z,101105.50
2023-02-22T12:59:42.923Z,101100.69
2023-02-22T13:05:46.531Z,101099.81
2023-02-22T13:11:54.148Z,101099.92
2023-02-22T13:18:16.396Z,101095.42
2023-02-22T13:24:44.536Z,101090.63
2023-02-22T13:30:48.148Z,101083.22
2023-02-22T13:36:51.546Z,101077.76
2023-02-22T13:42:33.027Z,101071.42
2023-02-22T13:48:44.002Z,101069.72
2023-02-22T13:54:37.850Z,101071.58
2023-02-22T14:00:29.116Z,101069.18
2023-02-22T14:06:34.188Z,101069.06
2023-02-22T14:12:37.731Z,101063.77
2023-02-22T14:18:40.190Z,101063.13
2023-02-22T14:24:51.091Z,101059.56
2023-02-22T14:30:45.359Z,101055.85
2023-02-22T14:36:39.174Z,101053.01
2023-02-22T14:42:48.506Z,101052.00
2023-02-22T14:48:52.629Z,101041.64
2023-02-22T14:55:11.252Z,101036.44
2023-02-22T15:01:11.704Z,101035.21
2023-02-22T15:07:07.831Z,101033.60
2023-02-22T15:13:11.867Z,101027.61
2023-02-22T15:19:10.449Z,101026.17
2023-02-22T15:25:14.201Z,101021.83
2023-02-22T15:31:09.028Z,101019.39
2023-02-22T15:37:09.567Z,101016.30
2023-02-22T15:43:07.699Z,101018.02
2023-02-22T15:49:11.321Z,101020.02
2023-02-22T15:55:16.271Z,101016.14
2023-02-22T16:00:53.256Z,101012.27
2023-02-22T16:06:21.357Z,101012.66
2023-02-22T16:11:52.508Z,101007.42
2023-02-22T16:18:06.725Z,101006.42
2023-02-22T16:24:25.344Z,101005.92
2023-02-22T16:30:24.369Z,100999.21
2023-02-22T16:36:28.600Z,100999.63
2023-02-22T16:42:32.088Z,100999.33
2023-02-22T16:48:24.433Z,101001.09
2023-02-22T16:54:18.844Z,101000.46
2023-02-22T17:00:10.742Z,101000.31
2023-02-22T17:07:05.232Z,100998.57
2023-02-22T17:17:56.884Z,100997.18
2023-02-22T17:23:33.729Z,100996.59
2023-02-22T17:29:09.930Z,101001.00
2023-02-22T17:34:45.539Z,100995.20
2023-02-22T17:40:21.898Z,100997.84
2023-02-22T17:45:57.589Z,100993.73
2023-02-22T17:51:33.798Z,100993.52
2023-02-22T17:57:09.825Z,100991.27
2023-02-22T18:02:45.781Z,100990.36
2023-02-22T18:08:22.610Z,100992.98
2023-02-22T18:13:58.803Z,100995.11
2023-02-22T18:19:35.819Z,100989.42
2023-02-22T18:25:11.948Z,100990.14
2023-02-22T18:31:15.575Z,100982.63
2023-02-22T18:37:01.609Z,100986.13
2023-02-22T18:43:05.047Z,100986.12
2023-02-22T18:49:08.603Z,100985.56
2023-02-22T18:55:11.991Z,100986.64
2023-02-22T19:01:15.494Z,100975.69
2023-02-22T19:07:18.864Z,100973.32
2023-02-22T19:13:22.337Z,100970.50
2023-02-22T19:19:26.721Z,100975.85
2023-02-22T19:25:30.207Z,100974.14
2023-02-22T19:31:33.943Z,100979.59
2023-02-22T19:37:40.308Z,100980.60
2023-02-22T19:43:43.674Z,100979.95
2023-02-22T19:49:47.143Z,100984.23
2023-02-22T19:55:50.522Z,100983.72
2023-02-22T20:01:44.159Z,100983.73
2023-02-22T20:07:48.054Z,100981.37
2023-02-22T20:13:51.435Z,100984.01
2023-02-22T20:19:54.910Z,100986.14
2023-02-22T20:25:58.367Z,100983.74
2023-02-22T20:31:54.386Z,100982.02
2023-02-22T20:37:57.836Z,100989.63
2023-02-22T20:44:01.702Z,100984.44
2023-02-22T20:50:05.152Z,100980.40
2023-02-22T20:56:08.597Z,100977.70
2023-02-22T21:02:11.993Z,100971.77
2023-02-22T21:08:15.479Z,100972.95
2023-02-22T21:14:18.978Z,100974.67
2023-02-22T21:20:15.391Z,100977.05
2023-02-22T21:26:18.781Z,100977.95
2023-02-22T21:32:22.421Z,100973.60
2023-02-22T21:38:25.952Z,100968.86
2023-02-22T21:44:28.283Z,100968.81
2023-02-22T21:50:32.203Z,100970.27
2023-02-22T21:56:35.568Z,100963.57
2023-02-22T22:02:41.876Z,100956.30
2023-02-22T22:08:45.315Z,100950.21
2023-02-22T22:14:42.744Z,100946.40
2023-02-22T22:20:46.292Z,100941.11
2023-02-22T22:26:49.763Z,100934.35
2023-02-22T22:32:53.165Z,100930.60
2023-02-22T22:38:59.242Z,100931.48
2023-02-22T22:45:02.786Z,100932.25
2023-02-22T22:51:06.335Z,100924.83
2023-02-22T22:57:09.801Z,100926.70
2023-02-22T23:03:13.280Z,100920.48
2023-02-22T23:09:16.743Z,100916.98
2023-02-22T23:15:20.178Z,100916.75
2023-02-22T23:21:23.647Z,100915.20
2023-02-22T23:27:27.059Z,100913.58
2023-02-22T23:33:30.809Z,100914.21
2023-02-22T23:39:34.212Z,100904.60
2023-02-22T23:45:37.755Z,100906.45
2023-02-22T23:51:41.364Z,100908.85
2023-02-22T23:57:44.747Z,100900.20
